Aérodrome :
LOGIN :

S'inscrire | Disclaimer

   EN    FR    IT 

 










Légende :    VFR   VFR Marginal   IFR   IFR Intensif   IFR Très Intensif
Visi : 
Plafond : 
>= 8 km
>= 3000ft
5 à 8 km
1000 à 3000 ft
1500m à 5 km
500 à 1000 ft
800 à 1500m
200 à 500 ft
< 800m
< 200 ft
Symboles :   Orages  Brouillard  Fortes neiges  Fortes précipitations  Vent > 20 kt
SIGMETs :   Divers  Orages  Givrage  Turbulence  Onde Orograph.  Cendres Volcan.






- Altitude de l'aérodrome : 90 ft
- Code IATA : NTE


LFRS - Nantes

DERNIER METAR :
  • 231430Z AUTO 32009KT 290V350 9999 BKN030 08/03 Q0998 NOSIG

METARs EXPIRÉS :
  • 231400Z AUTO 33014KT 290V350 9999 BKN029 BKN220 07/03 Q0998 NOSIG
  • 231330Z AUTO 32014KT 300V010 9999 SCT027 BKN034 07/03 Q0997 NOSIG
  • 231300Z AUTO 32016G26KT 300V360 9999 BKN024 OVC029 07/03 Q0997 BECMG 31012KT
  • 231230Z AUTO 31011KT 280V340 9999 OVC022 07/04 Q0996 NOSIG
  • 231200Z AUTO 31011KT 280V340 9999 BKN021 06/04 Q0996 NOSIG

TAF TAF LFRS
Valide du 23 à 12h jusqu'au 24 à 18h UTC


231100Z 2312/2418 31018G34KT 9999 SCT020 SCT030
BECMG 2312/2314 31012KT
BECMG 2316/2318 VRB02KT
BECMG 2403/2405 18010KT
TEMPO 2403/2415 4500 SHRA BKN018TCU
BECMG 2409/2411 26012KT
ATIS : +33 2 40 05 12 74



MET'MAP, la Météo Aéronautique d'un coup d'oeil ! - Copyright ORBIFLY Décembre 2007 - Disclaimer

ORBIFLY MET'MAP TEAM :

Programmation & Développement : Alexandra Zaïnal
Sur une idée originale de : Baudouin d'Aumeries
Assistance à la programmation : Marc-Olivier Méhu
Soutien technique & logistique : Manuel Goepfert

Contact : metmap@orbifly.com




SOURCES & CREDITS :

   NOAA